Time;durP1;ratioP1;P1;durP2;ratioP2;P2;SDS_P1;SDS_P2;PMS_P1;PMS_P2;Temp;Humidity;BMP_temperature;BMP_pressure;BME280_temperature;BME280_humidity;BME280_pressure;Samples;Min_cycle;Max_cycle;Signal;HPM_P1;HPM_P2
2022/04/25 00:00:09;;;;;;;14.77;13.10;;;;;;;9.03;88.31;99578.69;4982019;28;20468;-80
2022/04/25 00:02:36;;;;;;;16.10;12.20;;;;;;;9.01;88.36;99575.34;4982693;28;20453;-80
2022/04/25 00:05:03;;;;;;;17.43;12.67;;;;;;;8.91;88.53;99590.53;4982276;28;20515;-81
2022/04/25 00:07:30;;;;;;;15.67;12.30;;;;;;;8.99;88.34;99587.13;4992877;28;20514;-81
2022/04/25 00:09:57;;;;;;;17.47;12.67;;;;;;;8.78;88.41;99582.84;5002081;28;20462;-82
2022/04/25 00:12:23;;;;;;;15.97;12.73;;;;;;;8.65;88.70;99577.03;4990520;28;20543;-82
2022/04/25 00:14:51;;;;;;;15.50;12.80;;;;;;;8.66;88.81;99581.34;4983489;28;20463;-82
2022/04/25 00:17:18;;;;;;;17.50;12.60;;;;;;;8.45;89.35;99590.41;4984765;28;20484;-83
2022/04/25 00:19:45;;;;;;;19.73;12.40;;;;;;;8.48;89.32;99590.09;4985579;28;20892;-83
2022/04/25 00:22:12;;;;;;;17.20;14.47;;;;;;;8.52;89.75;99584.47;4984866;28;20476;-83
2022/04/25 00:24:38;;;;;;;14.23;12.50;;;;;;;8.69;89.50;99590.91;4984217;28;20941;-82
2022/04/25 00:27:05;;;;;;;21.93;12.70;;;;;;;8.70;89.15;99593.41;4971260;28;20488;-82
2022/04/25 00:29:32;;;;;;;15.63;11.90;;;;;;;8.48;89.09;99589.25;4985326;28;20858;-83
2022/04/25 00:32:00;;;;;;;14.87;12.90;;;;;;;8.77;88.67;99596.34;4985346;28;21066;-84
2022/04/25 00:34:26;;;;;;;17.83;13.37;;;;;;;8.93;87.25;99599.22;4985624;28;20444;-82
2022/04/25 00:36:53;;;;;;;15.27;12.77;;;;;;;8.77;87.90;99599.84;4984579;28;20488;-81
2022/04/25 00:39:20;;;;;;;15.57;13.20;;;;;;;8.77;88.06;99594.50;4985020;28;20464;-81
2022/04/25 00:41:46;;;;;;;15.60;12.27;;;;;;;8.71;88.40;99591.59;4985031;28;20496;-81
2022/04/25 00:44:13;;;;;;;17.50;13.40;;;;;;;8.80;88.84;99594.22;4985104;28;20499;-82
2022/04/25 00:46:40;;;;;;;16.40;12.57;;;;;;;8.94;88.48;99594.72;4981547;28;20499;-80
2022/04/25 00:49:08;;;;;;;15.63;12.90;;;;;;;9.11;88.17;99591.28;4981219;28;20457;-80
2022/04/25 00:51:35;;;;;;;14.23;12.83;;;;;;;9.00;87.53;99599.47;4980670;28;20487;-80
2022/04/25 00:54:02;;;;;;;14.00;11.97;;;;;;;8.91;88.12;99601.19;4982012;28;20473;-80
2022/04/25 00:56:29;;;;;;;15.30;12.80;;;;;;;9.10;88.28;99597.63;4980866;28;20543;-82
2022/04/25 00:58:55;;;;;;;17.50;13.10;;;;;;;9.05;88.36;99595.38;4981230;28;20533;-82
2022/04/25 01:01:22;;;;;;;16.70;13.10;;;;;;;9.11;88.59;99593.13;4980557;28;20493;-82
2022/04/25 01:03:51;;;;;;;14.17;12.67;;;;;;;9.18;88.11;99594.19;4981386;28;20882;-82
2022/04/25 01:06:19;;;;;;;15.57;13.67;;;;;;;9.05;88.17;99597.22;4966045;28;20503;-82
2022/04/25 01:08:46;;;;;;;15.40;12.47;;;;;;;9.02;88.09;99592.16;4981041;28;20882;-83
2022/04/25 01:11:14;;;;;;;19.10;12.93;;;;;;;9.02;87.84;99597.50;4980993;28;20483;-83
2022/04/25 01:13:42;;;;;;;14.17;11.40;;;;;;;9.04;86.61;99588.38;4981406;28;20463;-83
2022/04/25 01:16:09;;;;;;;17.57;14.57;;;;;;;8.93;86.71;99596.56;4980846;28;20532;-83
2022/04/25 01:18:35;;;;;;;22.37;17.67;;;;;;;8.77;86.32;99601.69;4981600;28;20463;-83
2022/04/25 01:21:04;;;;;;;24.40;18.90;;;;;;;8.69;86.84;99602.38;4981164;28;20476;-82
2022/04/25 01:29:01;;;;;;;33.73;21.83;;;;;;;8.54;88.32;99595.81;4981719;28;20468;-81
2022/04/25 01:31:27;;;;;;;28.17;21.60;;;;;;;8.43;88.08;99591.50;4981186;28;20486;-81
2022/04/25 01:33:54;;;;;;;28.03;20.87;;;;;;;8.56;88.61;99597.38;4982224;28;20444;-80
2022/04/25 01:36:23;;;;;;;33.90;22.80;;;;;;;8.28;89.21;99593.72;4980485;28;20508;-80
2022/04/25 01:38:52;;;;;;;27.50;21.40;;;;;;;8.56;88.82;99597.38;4980855;28;20452;-81
2022/04/25 01:41:19;;;;;;;27.80;21.13;;;;;;;8.61;88.69;99600.44;4982321;28;20483;-81
2022/04/25 01:43:46;;;;;;;27.30;21.07;;;;;;;8.52;88.07;99595.97;4984698;28;20456;-81
2022/04/25 01:46:13;;;;;;;29.73;22.50;;;;;;;8.52;88.07;99595.97;4984723;28;20487;-80
2022/04/25 01:48:40;;;;;;;33.90;23.87;;;;;;;8.38;88.98;99588.41;4984454;28;20467;-81
2022/04/25 01:51:07;;;;;;;28.17;21.10;;;;;;;8.32;89.13;99587.16;4983979;28;20480;-81
2022/04/25 01:53:33;;;;;;;33.03;22.77;;;;;;;8.34;89.23;99590.50;4984297;28;20571;-80
2022/04/25 01:56:01;;;;;;;32.87;21.53;;;;;;;8.33;89.25;99572.84;4984752;28;20480;-80
2022/04/25 01:58:28;;;;;;;31.40;22.50;;;;;;;8.29;89.33;99584.78;4984551;28;20452;-79
2022/04/25 02:00:55;;;;;;;32.17;22.30;;;;;;;8.33;89.37;99577.34;4983853;28;20495;-81
2022/04/25 02:03:21;;;;;;;27.03;22.20;;;;;;;7.98;89.47;99574.28;4984025;28;20448;-83
2022/04/25 02:05:48;;;;;;;27.10;22.00;;;;;;;7.97;90.22;99569.94;4984057;28;20547;-83
2022/04/25 02:08:15;;;;;;;32.63;23.10;;;;;;;7.94;90.83;99574.72;4983391;28;20452;-80
2022/04/25 02:11:19;;;;;;;30.10;22.00;;;;;;;7.91;90.55;99575.81;4983782;28;20543;-82
2022/04/25 02:13:29;;;;;;;28.67;22.67;;;;;;;7.91;90.44;99567.84;4964679;29;20812;-78
2022/04/25 02:15:56;;;;;;;33.73;21.83;;;;;;;8.02;90.48;99573.03;4981304;28;20458;-82
2022/04/25 02:18:23;;;;;;;28.23;22.50;;;;;;;8.04;90.52;99572.91;4983713;28;20480;-81
2022/04/25 02:20:49;;;;;;;33.10;24.40;;;;;;;8.12;90.77;99565.03;4983463;28;20499;-80
2022/04/25 02:23:16;;;;;;;34.13;23.30;;;;;;;8.27;90.48;99557.44;4983257;28;20477;-81
2022/04/25 02:25:43;;;;;;;31.67;24.47;;;;;;;8.08;90.56;99556.47;4983543;28;20486;-81
2022/04/25 02:28:10;;;;;;;32.93;24.30;;;;;;;8.07;89.96;99551.28;4983985;28;20480;-82
2022/04/25 02:30:37;;;;;;;34.87;24.40;;;;;;;7.90;91.06;99547.53;4983893;28;20563;-81
2022/04/25 02:33:04;;;;;;;37.20;24.47;;;;;;;7.91;91.31;99554.53;4984888;28;20465;-82
2022/04/25 02:35:31;;;;;;;33.60;26.10;;;;;;;7.80;91.54;99550.19;4983556;28;20527;-82
2022/04/25 02:37:57;;;;;;;42.23;24.00;;;;;;;7.96;91.51;99551.47;4983594;28;20564;-81
2022/04/25 02:40:24;;;;;;;31.60;24.60;;;;;;;7.78;91.10;99549.50;4983515;28;20511;-81
2022/04/25 02:42:51;;;;;;;34.60;24.00;;;;;;;7.80;91.56;99547.53;4983993;28;20551;-78
2022/04/25 02:45:17;;;;;;;38.27;26.00;;;;;;;7.82;91.66;99553.56;4983154;28;20508;-78
2022/04/25 02:47:45;;;;;;;34.97;25.93;;;;;;;7.81;91.59;99549.22;4983828;28;20556;-78
2022/04/25 02:50:12;;;;;;;39.00;26.43;;;;;;;7.68;91.88;99549.47;4983171;28;20461;-79
2022/04/25 02:52:38;;;;;;;33.70;24.83;;;;;;;7.67;91.79;99544.31;4984035;28;20496;-80
2022/04/25 02:55:08;;;;;;;36.07;24.70;;;;;;;7.68;92.19;99548.66;4984325;28;20756;-80
2022/04/25 02:57:34;;;;;;;35.00;25.20;;;;;;;7.54;92.26;99544.59;4983395;28;20476;-80
2022/04/25 03:00:01;;;;;;;36.50;27.70;;;;;;;7.64;92.37;99541.94;4984067;28;20453;-81
2022/04/25 03:02:28;;;;;;;36.50;25.43;;;;;;;7.44;92.55;99539.25;4983294;28;20573;-81
2022/04/25 03:04:56;;;;;;;39.83;27.33;;;;;;;7.61;92.64;99535.06;4983936;28;20520;-83
2022/04/25 03:07:23;;;;;;;41.90;28.93;;;;;;;7.52;92.54;99533.25;4982473;28;20527;-79
2022/04/25 03:09:50;;;;;;;36.47;26.60;;;;;;;7.73;92.38;99538.44;4983308;28;20436;-80
2022/04/25 03:12:16;;;;;;;38.23;25.80;;;;;;;7.69;92.00;99534.34;4982850;28;20508;-78
2022/04/25 03:14:43;;;;;;;42.50;27.10;;;;;;;7.83;91.46;99541.94;4983144;28;20445;-79
2022/04/25 03:17:11;;;;;;;35.50;26.90;;;;;;;7.83;90.86;99552.59;4982750;28;20496;-78
2022/04/25 03:19:38;;;;;;;39.47;26.90;;;;;;;7.96;90.40;99551.47;4982765;28;20483;-78
2022/04/25 03:22:06;;;;;;;42.20;25.57;;;;;;;8.10;89.78;99559.00;4981959;28;20519;-79
2022/04/25 03:24:34;;;;;;;36.20;24.87;;;;;;;8.08;89.39;99556.47;4983380;28;20465;-82
2022/04/25 03:27:00;;;;;;;47.27;26.13;;;;;;;8.16;89.51;99557.59;4982255;28;20543;-83
2022/04/25 03:29:27;;;;;;;36.00;24.20;;;;;;;8.02;88.63;99567.72;4983240;28;20448;-83
2022/04/25 03:31:53;;;;;;;33.87;24.30;;;;;;;7.90;89.13;99575.00;4982347;28;20915;-82
2022/04/25 03:34:20;;;;;;;37.20;25.13;;;;;;;8.11;89.03;99569.50;4983342;28;20468;-83
2022/04/25 03:36:51;;;;;;;33.60;26.40;;;;;;;8.25;88.96;99572.72;4982255;28;20472;-80
2022/04/25 03:39:19;;;;;;;41.80;24.97;;;;;;;8.11;88.55;99572.19;4982386;28;20449;-81
2022/04/25 03:41:45;;;;;;;42.57;24.13;;;;;;;8.24;88.72;99574.53;4982100;28;20472;-81
2022/04/25 03:44:12;;;;;;;40.60;24.20;;;;;;;8.28;88.54;99577.75;4981487;28;20522;-78
2022/04/25 03:46:39;;;;;;;35.93;24.37;;;;;;;8.34;88.28;99579.84;4981597;28;20528;-80
2022/04/25 03:49:06;;;;;;;36.80;23.80;;;;;;;8.30;88.72;99581.97;4983233;28;20464;-78
2022/04/25 03:51:32;;;;;;;37.87;23.10;;;;;;;8.26;88.81;99577.91;4982119;28;20524;-80
2022/04/25 03:53:59;;;;;;;33.77;22.23;;;;;;;8.25;88.62;99589.53;4982256;28;20709;-80
2022/04/25 03:59:23;;;;;;;32.60;23.43;;;;;;;8.04;88.79;99583.53;4933814;29;20482;-80
2022/04/25 04:01:49;;;;;;;30.60;22.23;;;;;;;7.95;89.20;99587.03;4971788;28;20472;-79
2022/04/25 04:04:16;;;;;;;30.20;22.07;;;;;;;7.95;89.74;99589.69;4982383;28;20433;-78
2022/04/25 04:06:43;;;;;;;32.87;21.90;;;;;;;7.88;90.23;99594.72;4986597;28;20594;-80
2022/04/25 04:11:52;;;;;;;40.00;23.20;;;;;;;7.68;90.56;99588.56;4985005;28;20996;-79
2022/04/25 04:14:19;;;;;;;28.83;20.57;;;;;;;7.81;90.56;99583.81;4981727;28;20445;-81
2022/04/25 04:16:45;;;;;;;27.33;21.37;;;;;;;7.84;90.25;99593.34;4981273;28;20503;-82
2022/04/25 04:19:12;;;;;;;31.17;21.80;;;;;;;7.88;89.83;99602.72;4981503;28;20527;-79
2022/04/25 04:21:39;;;;;;;28.20;22.07;;;;;;;7.63;90.45;99598.78;4979892;28;20489;-76
2022/04/25 04:24:06;;;;;;;27.37;22.30;;;;;;;7.84;90.17;99598.66;4981000;28;20504;-76
2022/04/25 04:26:32;;;;;;;29.10;22.43;;;;;;;7.86;89.94;99599.34;4980049;28;20491;-78
2022/04/25 04:29:00;;;;;;;33.57;22.30;;;;;;;7.72;90.53;99596.13;4981389;28;20516;-77
2022/04/25 04:31:27;;;;;;;26.30;20.80;;;;;;;7.69;90.40;99595.53;4980920;28;20503;-78
2022/04/25 04:33:53;;;;;;;30.50;21.20;;;;;;;7.68;90.70;99605.34;4981787;28;20464;-76
2022/04/25 04:36:22;;;;;;;30.20;20.63;;;;;;;7.76;90.52;99609.16;4983233;28;20483;-79
2022/04/25 04:38:49;;;;;;;30.07;20.13;;;;;;;7.61;90.00;99609.56;4977787;28;20479;-79
2022/04/25 04:41:16;;;;;;;33.87;20.20;;;;;;;7.79;90.03;99615.03;4987156;28;20484;-81
2022/04/25 04:43:42;;;;;;;24.97;18.63;;;;;;;7.79;89.93;99616.84;4991002;28;20494;-78
2022/04/25 04:46:10;;;;;;;29.27;19.43;;;;;;;7.58;89.61;99625.78;4984048;28;20510;-80
2022/04/25 04:48:37;;;;;;;29.50;18.77;;;;;;;7.52;89.79;99631.66;4981644;28;20499;-78
2022/04/25 04:51:04;;;;;;;29.13;18.60;;;;;;;7.74;89.82;99633.22;4981597;28;20512;-78
2022/04/25 04:53:30;;;;;;;29.10;18.87;;;;;;;7.75;89.72;99634.91;4980015;28;20887;-78
2022/04/25 04:55:57;;;;;;;27.40;20.70;;;;;;;7.75;89.27;99640.25;4981563;28;20496;-79
2022/04/25 04:58:23;;;;;;;25.67;18.90;;;;;;;7.85;89.33;99645.59;4980606;28;20480;-78
2022/04/25 05:00:50;;;;;;;28.00;19.40;;;;;;;7.76;89.07;99641.94;4980742;28;20505;-79
2022/04/25 05:03:19;;;;;;;28.70;20.33;;;;;;;7.75;89.40;99648.22;4980765;28;20456;-79
2022/04/25 05:05:46;;;;;;;30.83;18.80;;;;;;;7.82;89.30;99645.84;4980075;28;20900;-80
2022/04/25 05:08:13;;;;;;;26.17;18.70;;;;;;;7.73;88.74;99648.34;4980133;28;20511;-81
2022/04/25 05:10:40;;;;;;;31.90;18.67;;;;;;;7.72;88.68;99660.00;4981156;28;20465;-81
2022/04/25 05:13:07;;;;;;;26.73;17.70;;;;;;;7.79;88.81;99659.44;4981275;28;20930;-81
2022/04/25 05:15:34;;;;;;;24.47;17.90;;;;;;;7.57;89.46;99664.00;4981713;28;20522;-79
2022/04/25 05:18:01;;;;;;;29.73;18.57;;;;;;;7.57;89.54;99666.69;4985627;28;20507;-79
2022/04/25 05:20:29;;;;;;;25.57;18.27;;;;;;;7.89;89.44;99660.28;4984758;28;20472;-78
2022/04/25 05:22:57;;;;;;;31.97;19.50;;;;;;;7.77;89.50;99664.88;4984910;28;20448;-81
2022/04/25 05:25:25;;;;;;;27.73;18.50;;;;;;;7.87;89.46;99665.75;4985455;28;20433;-80
2022/04/25 05:27:53;;;;;;;27.90;19.30;;;;;;;7.85;89.48;99673.03;4984589;28;20496;-80
2022/04/25 05:30:20;;;;;;;22.73;17.83;;;;;;;7.67;89.47;99667.56;4983819;28;20460;-86
2022/04/25 05:32:49;;;;;;;27.90;18.47;;;;;;;7.87;89.48;99668.41;4984938;28;20866;-81
2022/04/25 05:35:16;;;;;;;25.00;19.10;;;;;;;7.98;88.67;99667.44;4984458;28;20445;-85
2022/04/25 05:37:45;;;;;;;25.10;17.23;;;;;;;8.13;88.05;99661.72;4982659;28;20996;-83
2022/04/25 05:40:12;;;;;;;33.27;19.73;;;;;;;7.93;87.93;99664.34;4978249;28;20515;-84
2022/04/25 05:42:40;;;;;;;28.47;20.73;;;;;;;7.95;87.88;99670.41;4982708;28;20507;-82
2022/04/25 05:45:08;;;;;;;30.70;18.83;;;;;;;8.05;88.37;99665.06;4982421;28;20476;-83
2022/04/25 05:47:35;;;;;;;30.77;19.57;;;;;;;8.03;88.36;99672.34;4983778;28;21057;-83
2022/04/25 05:52:48;;;;;;;30.53;19.20;;;;;;;8.13;87.82;99678.53;4982696;28;21001;-81
2022/04/25 05:55:15;;;;;;;28.43;20.70;;;;;;;8.27;87.83;99675.44;4991235;28;20483;-83
2022/04/25 05:57:41;;;;;;;34.80;22.03;;;;;;;8.05;88.12;99676.56;4980524;28;20495;-82
2022/04/25 06:00:11;;;;;;;29.67;20.60;;;;;;;8.22;87.42;99690.19;4983823;28;20766;-86
2022/04/25 06:02:38;;;;;;;26.30;18.80;;;;;;;8.00;87.50;99685.94;4984979;28;20504;-81
2022/04/25 06:05:05;;;;;;;25.87;18.50;;;;;;;8.22;87.82;99691.00;4984336;28;20491;-83
2022/04/25 06:07:33;;;;;;;31.53;19.93;;;;;;;8.04;87.69;99692.69;4983539;28;20488;-79
2022/04/25 06:10:01;;;;;;;28.53;19.57;;;;;;;8.29;87.66;99701.94;4984821;28;20428;-82
2022/04/25 06:12:29;;;;;;;27.50;20.27;;;;;;;8.15;87.79;99699.69;4983677;28;20551;-79
2022/04/25 06:14:56;;;;;;;26.27;19.60;;;;;;;8.06;88.29;99710.19;4984464;28;20480;-80
2022/04/25 06:17:22;;;;;;;29.03;18.80;;;;;;;8.07;88.74;99709.22;4983696;28;20479;-80
2022/04/25 06:19:49;;;;;;;27.13;18.30;;;;;;;7.73;88.60;99714.88;4983318;28;20461;-81
2022/04/25 06:22:18;;;;;;;26.37;18.60;;;;;;;7.87;89.47;99713.66;4982271;28;20543;-79
2022/04/25 06:24:45;;;;;;;22.30;17.33;;;;;;;7.91;88.28;99716.88;4983544;28;20468;-78
2022/04/25 06:27:13;;;;;;;26.77;18.77;;;;;;;7.97;88.55;99721.69;4981485;28;20553;-79
2022/04/25 06:29:42;;;;;;;22.07;16.87;;;;;;;7.77;88.61;99722.59;4983420;28;20491;-78
2022/04/25 06:32:08;;;;;;;25.07;18.67;;;;;;;7.88;88.31;99718.00;4982700;28;21008;-81
2022/04/25 06:34:35;;;;;;;23.23;19.67;;;;;;;7.89;88.51;99725.00;4983129;28;20455;-79
2022/04/25 06:37:02;;;;;;;25.90;18.20;;;;;;;7.88;88.10;99720.69;4981876;28;20644;-82
2022/04/25 06:39:29;;;;;;;29.27;17.70;;;;;;;8.06;87.67;99722.66;4983922;28;20492;-79
2022/04/25 06:41:56;;;;;;;29.00;17.63;;;;;;;8.20;87.17;99735.59;4982324;28;20524;-81
2022/04/25 06:44:24;;;;;;;23.93;17.93;;;;;;;8.24;87.07;99741.47;4983055;28;20495;-80
2022/04/25 06:46:50;;;;;;;25.80;17.30;;;;;;;8.13;87.26;99731.78;4982833;28;20894;-80
2022/04/25 06:49:24;;;;;;;23.73;17.70;;;;;;;8.22;87.09;99733.63;4982431;28;20456;-79
2022/04/25 06:51:52;;;;;;;23.63;17.13;;;;;;;8.19;86.89;99739.22;4983187;28;20476;-81
2022/04/25 06:54:18;;;;;;;21.03;16.93;;;;;;;8.22;86.68;99730.13;4982548;28;20448;-80
2022/04/25 06:56:45;;;;;;;29.40;18.80;;;;;;;8.18;86.99;99734.88;4981730;28;20485;-81
2022/04/25 06:59:12;;;;;;;29.57;18.30;;;;;;;8.37;86.57;99741.22;4982181;28;20452;-81
2022/04/25 07:01:40;;;;;;;30.73;19.00;;;;;;;8.27;87.34;99739.38;4982205;28;21039;-80
2022/04/25 07:04:07;;;;;;;28.40;18.47;;;;;;;8.47;86.21;99742.06;4982190;28;20858;-80
2022/04/25 07:06:34;;;;;;;23.80;17.13;;;;;;;8.58;85.47;99752.59;4981973;28;20535;-80
2022/04/25 07:09:01;;;;;;;26.40;17.53;;;;;;;8.37;85.91;99755.38;4981953;28;20526;-80
2022/04/25 07:11:28;;;;;;;27.77;19.40;;;;;;;8.48;86.30;99757.09;4981676;28;20515;-80
2022/04/25 07:13:55;;;;;;;26.03;17.73;;;;;;;8.32;86.84;99754.94;4982160;28;20441;-81
2022/04/25 07:16:24;;;;;;;34.03;20.17;;;;;;;8.43;86.41;99760.16;4981419;28;20468;-80
2022/04/25 07:18:52;;;;;;;28.63;19.53;;;;;;;8.47;86.02;99758.91;4981265;28;20816;-79
2022/04/25 07:29:28;;;;;;;27.30;19.47;;;;;;;8.86;84.98;99758.91;4982217;28;20471;-79
2022/04/25 07:31:54;;;;;;;33.70;19.70;;;;;;;8.68;84.77;99760.63;4982038;28;20484;-78
2022/04/25 07:34:23;;;;;;;25.50;18.53;;;;;;;8.86;84.47;99750.91;4982801;28;20428;-81
2022/04/25 07:36:53;;;;;;;32.93;19.20;;;;;;;8.89;84.46;99763.13;4982139;28;20484;-80
2022/04/25 07:39:19;;;;;;;28.90;19.47;;;;;;;8.89;84.21;99763.13;4980854;28;20479;-81
2022/04/25 07:41:46;;;;;;;36.47;20.73;;;;;;;8.82;84.43;99762.00;4982098;28;20524;-81
2022/04/25 07:44:13;;;;;;;24.70;20.37;;;;;;;8.85;84.53;99765.25;4982198;28;20523;-79
2022/04/25 07:46:40;;;;;;;31.43;20.37;;;;;;;8.85;83.87;99767.91;4981801;28;20507;-78
2022/04/25 07:49:07;;;;;;;30.67;19.70;;;;;;;8.83;83.79;99767.19;4982411;28;20519;-79
2022/04/25 07:51:35;;;;;;;28.83;19.57;;;;;;;8.98;84.38;99772.09;4982539;28;20486;-83
2022/04/25 07:54:04;;;;;;;30.90;20.13;;;;;;;8.96;84.13;99774.91;4981321;28;20855;-83
2022/04/25 07:56:31;;;;;;;25.60;18.80;;;;;;;8.94;84.43;99776.88;4982005;28;20476;-85
2022/04/25 07:59:00;;;;;;;28.80;18.07;;;;;;;8.86;83.70;99774.91;4982041;28;20992;-82
2022/04/25 08:01:27;;;;;;;24.87;19.43;;;;;;;9.17;83.77;99780.06;4981966;28;20480;-84
2022/04/25 08:03:54;;;;;;;29.57;20.23;;;;;;;9.36;83.14;99792.53;4982075;28;20480;-80
2022/04/25 08:06:21;;;;;;;28.63;19.50;;;;;;;9.58;82.95;99790.47;4986568;28;20475;-84
2022/04/25 08:08:49;;;;;;;33.30;19.93;;;;;;;9.49;82.68;99794.88;4963002;28;20556;-81
2022/04/25 08:11:16;;;;;;;26.37;19.50;;;;;;;9.54;82.44;99799.78;4987480;28;21121;-82
2022/04/25 08:19:13;;;;;;;26.30;20.20;;;;;;;9.96;81.51;99810.00;4980238;28;20467;-82
2022/04/25 08:21:40;;;;;;;26.60;19.77;;;;;;;10.11;79.39;99807.69;4980258;28;20664;-81
2022/04/25 08:24:08;;;;;;;24.40;20.00;;;;;;;10.28;79.45;99795.38;4992999;28;20491;-79
2022/04/25 08:26:35;;;;;;;31.27;19.17;;;;;;;10.10;77.41;99800.66;5001393;28;20510;-83
2022/04/25 08:29:01;;;;;;;29.20;20.50;;;;;;;10.30;77.99;99810.25;4994432;28;20574;-79
2022/04/25 08:31:28;;;;;;;25.87;19.50;;;;;;;10.71;77.65;99812.53;4979405;28;20496;-79
2022/04/25 08:33:55;;;;;;;24.77;19.97;;;;;;;10.33;78.78;99801.16;4980824;28;20444;-80
2022/04/25 08:36:22;;;;;;;24.77;17.47;;;;;;;10.43;79.27;99815.25;4979681;28;20539;-80
2022/04/25 08:38:50;;;;;;;29.10;19.00;;;;;;;10.61;78.04;99817.16;4978861;28;20456;-80
2022/04/25 08:41:21;;;;;;;27.63;20.33;;;;;;;10.34;79.60;99818.84;4980556;28;20476;-81
2022/04/25 08:43:51;;;;;;;25.63;18.07;;;;;;;10.08;79.18;99819.50;4981365;28;20452;-80
2022/04/25 08:46:18;;;;;;;28.70;20.10;;;;;;;10.26;78.85;99822.25;4979633;28;20472;-82
2022/04/25 08:48:46;;;;;;;27.70;20.00;;;;;;;9.90;79.04;99827.47;4980053;28;20539;-79
2022/04/25 08:51:12;;;;;;;25.77;18.37;;;;;;;10.02;81.01;99836.13;4979567;28;20480;-79
2022/04/25 08:53:40;;;;;;;27.57;19.83;;;;;;;10.14;80.03;99844.81;4979457;28;20472;-81
2022/04/25 08:56:08;;;;;;;26.73;19.60;;;;;;;10.20;79.76;99835.34;4980023;28;20511;-82
2022/04/25 08:58:40;;;;;;;30.60;19.33;;;;;;;10.15;79.46;99841.97;4979785;28;20456;-80
2022/04/25 09:01:09;;;;;;;24.23;19.27;;;;;;;10.04;80.61;99846.69;4979024;28;20472;-78
2022/04/25 09:03:36;;;;;;;27.50;20.20;;;;;;;10.15;80.92;99849.16;4980508;28;20452;-79
2022/04/25 09:06:03;;;;;;;28.43;20.70;;;;;;;10.29;79.69;99845.13;4980040;28;20540;-83
2022/04/25 09:08:30;;;;;;;25.67;18.50;;;;;;;10.33;78.60;99854.59;4978603;28;20488;-78
2022/04/25 09:12:09;;;;;;;34.07;19.60;;;;;;;10.48;78.97;99858.41;4979584;28;20483;-80
2022/04/25 09:13:48;;;;;;;25.37;19.30;;;;;;;10.39;78.15;99869.19;4978961;28;20456;-79
2022/04/25 09:16:15;;;;;;;27.47;18.70;;;;;;;10.55;78.17;99864.00;4979025;28;20506;-79
2022/04/25 09:18:42;;;;;;;27.33;20.27;;;;;;;10.44;78.66;99867.72;4980028;28;20483;-79
2022/04/25 09:21:14;;;;;;;24.60;17.80;;;;;;;10.58;77.37;99866.38;4980284;28;20992;-82
2022/04/25 09:23:41;;;;;;;25.40;19.10;;;;;;;10.63;76.30;99868.63;4979499;28;20491;-82
2022/04/25 09:26:12;;;;;;;22.47;17.40;;;;;;;10.62;77.34;99875.78;4980232;28;20484;-82
2022/04/25 09:28:50;;;;;;;23.80;17.63;;;;;;;10.95;76.41;99870.78;4979823;28;20523;-80
2022/04/25 09:31:18;;;;;;;28.60;18.93;;;;;;;10.55;76.64;99875.56;4979380;28;20483;-80
2022/04/25 09:33:45;;;;;;;25.77;18.07;;;;;;;11.05;75.79;99874.22;4980588;28;20440;-78
2022/04/25 09:36:12;;;;;;;26.13;18.27;;;;;;;10.78;75.92;99891.19;4980046;28;20476;-77
2022/04/25 09:38:41;;;;;;;25.40;18.17;;;;;;;10.80;76.31;99880.31;4978458;28;20463;-77
2022/04/25 09:41:08;;;;;;;22.60;17.43;;;;;;;10.62;76.47;99881.13;4980263;28;20492;-78
2022/04/25 09:43:38;;;;;;;27.10;18.03;;;;;;;10.20;77.99;99886.09;4980309;28;20535;-78
2022/04/25 09:46:08;;;;;;;24.03;17.60;;;;;;;10.68;76.96;99891.22;4959995;28;20509;-76
2022/04/25 09:48:35;;;;;;;23.90;18.00;;;;;;;10.62;76.64;99889.16;4961212;29;20493;-77
2022/04/25 09:51:03;;;;;;;23.23;18.03;;;;;;;10.53;77.74;99888.22;4940455;29;20477;-77
2022/04/25 09:53:45;;;;;;;27.07;20.87;;;;;;;10.55;78.62;99886.25;4940129;29;20501;-78
2022/04/25 09:56:14;;;;;;;20.93;16.90;;;;;;;10.87;77.94;99882.25;4938561;29;20846;-78
2022/04/25 09:58:43;;;;;;;24.90;17.17;;;;;;;10.90;77.67;99889.09;4942108;29;20506;-77
2022/04/25 10:01:15;;;;;;;24.43;18.13;;;;;;;10.81;77.08;99890.03;4958989;28;20488;-77
2022/04/25 10:03:43;;;;;;;23.63;17.47;;;;;;;10.58;75.83;99900.31;4956259;29;20445;-77
2022/04/25 10:06:10;;;;;;;20.50;15.93;;;;;;;10.56;75.96;99895.09;4963112;28;20485;-77
2022/04/25 10:08:38;;;;;;;24.63;18.27;;;;;;;10.68;76.91;99901.94;4962682;29;20502;-76
2022/04/25 10:11:06;;;;;;;21.53;16.57;;;;;;;10.60;76.24;99899.16;4963218;28;20492;-78
2022/04/25 10:13:33;;;;;;;20.13;16.77;;;;;;;10.71;77.21;99903.44;4961732;29;20469;-78
2022/04/25 10:16:00;;;;;;;24.80;17.93;;;;;;;10.74;76.12;99906.69;4961644;29;20540;-78
2022/04/25 10:18:30;;;;;;;21.00;16.30;;;;;;;10.38;77.38;99912.91;4963209;29;20973;-77
2022/04/25 10:20:57;;;;;;;19.03;15.40;;;;;;;10.84;76.60;99916.47;4962848;28;20477;-77
2022/04/25 10:23:24;;;;;;;20.13;15.87;;;;;;;10.71;76.06;99911.47;4963309;29;20465;-78
2022/04/25 10:25:54;;;;;;;21.37;16.60;;;;;;;10.99;76.41;99917.66;4963470;28;20473;-77
2022/04/25 10:28:25;;;;;;;24.17;16.73;;;;;;;10.96;76.98;99919.78;4963854;29;21052;-77
2022/04/25 10:30:52;;;;;;;25.83;19.00;;;;;;;10.68;77.87;99917.13;4962590;28;20477;-78
2022/04/25 10:33:21;;;;;;;25.37;18.60;;;;;;;10.53;79.07;99922.13;4963728;29;20441;-78
2022/04/25 10:35:50;;;;;;;22.93;17.83;;;;;;;10.47;79.46;99926.25;4963191;28;20473;-79
2022/04/25 10:38:49;;;;;;;27.07;20.60;;;;;;;10.55;80.95;99931.69;4943405;29;20454;-78
2022/04/25 10:44:12;;;;;;;28.77;21.40;;;;;;;10.32;80.85;99928.53;4948102;29;20536;-78
2022/04/25 10:47:14;;;;;;;25.60;19.87;;;;;;;10.84;79.57;99936.03;4968315;28;20491;-77
2022/04/25 10:49:42;;;;;;;27.33;18.70;;;;;;;10.94;80.02;99933.31;4982880;28;20510;-79
2022/04/25 10:52:43;;;;;;;28.83;20.17;;;;;;;10.30;79.18;99933.16;4981898;28;20757;-78
2022/04/25 10:55:19;;;;;;;25.87;20.53;;;;;;;10.28;81.13;99937.00;4981928;28;20471;-79
2022/04/25 10:58:15;;;;;;;28.07;20.93;;;;;;;10.28;81.50;99937.00;4965436;28;20441;-79
2022/04/25 11:00:51;;;;;;;27.40;19.83;;;;;;;10.85;81.50;99937.72;4972993;28;20491;-78
2022/04/25 11:03:20;;;;;;;29.20;22.47;;;;;;;10.89;80.41;99940.94;4980900;28;20440;-79
2022/04/25 11:05:47;;;;;;;28.27;21.00;;;;;;;11.58;78.11;99936.75;4978892;28;20524;-79
2022/04/25 11:08:41;;;;;;;29.20;19.70;;;;;;;12.01;75.55;99935.09;4978961;28;20452;-79
2022/04/25 11:11:16;;;;;;;26.17;19.47;;;;;;;11.44;75.16;99930.09;4978360;28;20472;-79
2022/04/25 11:14:14;;;;;;;22.37;18.10;;;;;;;11.45;76.55;99938.97;4979284;28;20860;-78
2022/04/25 11:16:41;;;;;;;21.27;17.40;;;;;;;11.89;75.86;99941.69;4978725;28;20488;-79
2022/04/25 11:19:16;;;;;;;20.00;17.90;;;;;;;11.78;76.55;99934.72;4979734;28;20452;-79
2022/04/25 11:21:46;;;;;;;21.30;17.87;;;;;;;11.59;77.50;99938.41;4977719;28;20503;-78
2022/04/25 11:24:30;;;;;;;18.20;16.30;;;;;;;12.39;75.23;99951.72;4961587;28;20456;-78
2022/04/25 11:26:59;;;;;;;19.17;15.70;;;;;;;12.52;74.61;99956.63;4980906;28;20535;-79
2022/04/25 11:29:26;;;;;;;17.63;15.60;;;;;;;11.79;75.59;99943.59;4978019;28;20480;-78
2022/04/25 11:31:53;;;;;;;18.87;15.37;;;;;;;11.58;75.21;99954.63;4971827;28;20468;-78
2022/04/25 11:34:23;;;;;;;18.93;15.53;;;;;;;12.41;75.85;99960.44;4976689;28;20969;-78
2022/04/25 11:36:50;;;;;;;17.03;15.17;;;;;;;12.63;75.13;99960.88;4979939;28;20480;-81
2022/04/25 11:42:06;;;;;;;16.63;14.30;;;;;;;12.99;70.73;99964.19;4981452;28;20471;-79
2022/04/25 11:44:38;;;;;;;14.60;13.10;;;;;;;12.33;74.43;99972.97;4981065;28;20499;-79
2022/04/25 11:47:05;;;;;;;16.00;14.37;;;;;;;12.38;72.39;99966.13;4980569;28;20480;-79
2022/04/25 11:49:32;;;;;;;16.57;12.80;;;;;;;12.24;73.52;99969.41;4981106;28;20484;-77
2022/04/25 11:52:01;;;;;;;13.50;12.10;;;;;;;11.96;73.09;99968.69;4980581;28;20465;-82
2022/04/25 11:54:31;;;;;;;14.33;12.90;;;;;;;12.39;73.15;99965.13;4981072;28;20453;-81
2022/04/25 11:57:00;;;;;;;14.43;12.43;;;;;;;12.43;71.02;99968.34;4980398;28;20561;-80
2022/04/25 11:59:28;;;;;;;12.50;11.20;;;;;;;12.10;71.53;99968.13;4980604;28;20444;-83